sensor_id;sensor_type;location;lat;lon;timestamp;P1;durP1;ratioP1;P2;durP2;ratioP2
75427;SDS011;64008;55.612;37.698;2023-09-30T00:00:25;14.48;;;6.97;;
75427;SDS011;64008;55.612;37.698;2023-09-30T00:02:51;11.70;;;6.68;;
75427;SDS011;64008;55.612;37.698;2023-09-30T00:05:17;16.60;;;7.88;;
75427;SDS011;64008;55.612;37.698;2023-09-30T00:07:45;16.95;;;7.28;;
75427;SDS011;64008;55.612;37.698;2023-09-30T00:10:10;15.45;;;7.47;;
75427;SDS011;64008;55.612;37.698;2023-09-30T00:12:36;14.07;;;6.85;;
75427;SDS011;64008;55.612;37.698;2023-09-30T00:15:02;15.43;;;7.03;;
75427;SDS011;64008;55.612;37.698;2023-09-30T00:17:29;10.82;;;6.53;;
75427;SDS011;64008;55.612;37.698;2023-09-30T00:19:54;14.52;;;7.47;;
75427;SDS011;64008;55.612;37.698;2023-09-30T00:22:20;16.92;;;7.85;;
75427;SDS011;64008;55.612;37.698;2023-09-30T00:24:45;15.35;;;8.00;;
75427;SDS011;64008;55.612;37.698;2023-09-30T00:27:12;19.25;;;8.25;;
75427;SDS011;64008;55.612;37.698;2023-09-30T00:29:37;25.42;;;8.77;;
75427;SDS011;64008;55.612;37.698;2023-09-30T00:32:03;16.83;;;7.85;;
75427;SDS011;64008;55.612;37.698;2023-09-30T00:34:28;14.75;;;7.55;;
75427;SDS011;64008;55.612;37.698;2023-09-30T00:36:58;18.77;;;7.75;;
75427;SDS011;64008;55.612;37.698;2023-09-30T00:39:23;20.35;;;7.53;;
75427;SDS011;64008;55.612;37.698;2023-09-30T00:41:52;16.15;;;7.95;;
75427;SDS011;64008;55.612;37.698;2023-09-30T00:44:17;16.95;;;7.68;;
75427;SDS011;64008;55.612;37.698;2023-09-30T00:46:43;22.25;;;7.90;;
75427;SDS011;64008;55.612;37.698;2023-09-30T00:49:09;19.00;;;7.97;;
75427;SDS011;64008;55.612;37.698;2023-09-30T00:51:37;21.52;;;8.43;;
75427;SDS011;64008;55.612;37.698;2023-09-30T00:54:03;21.13;;;7.82;;
75427;SDS011;64008;55.612;37.698;2023-09-30T00:56:30;17.42;;;7.60;;
75427;SDS011;64008;55.612;37.698;2023-09-30T00:58:57;16.58;;;7.18;;
75427;SDS011;64008;55.612;37.698;2023-09-30T01:01:23;13.30;;;7.40;;
75427;SDS011;64008;55.612;37.698;2023-09-30T01:03:49;14.95;;;7.80;;
75427;SDS011;64008;55.612;37.698;2023-09-30T01:06:14;15.57;;;7.60;;
75427;SDS011;64008;55.612;37.698;2023-09-30T01:08:40;14.00;;;7.10;;
75427;SDS011;64008;55.612;37.698;2023-09-30T01:11:06;16.08;;;7.97;;
75427;SDS011;64008;55.612;37.698;2023-09-30T01:13:36;13.23;;;7.72;;
75427;SDS011;64008;55.612;37.698;2023-09-30T01:16:06;14.80;;;7.47;;
75427;SDS011;64008;55.612;37.698;2023-09-30T01:18:35;12.90;;;7.38;;
75427;SDS011;64008;55.612;37.698;2023-09-30T01:21:04;15.23;;;7.57;;
75427;SDS011;64008;55.612;37.698;2023-09-30T01:23:31;14.80;;;8.38;;
75427;SDS011;64008;55.612;37.698;2023-09-30T01:25:57;16.88;;;8.45;;
75427;SDS011;64008;55.612;37.698;2023-09-30T01:28:24;16.73;;;8.10;;
75427;SDS011;64008;55.612;37.698;2023-09-30T01:30:49;17.42;;;7.95;;
75427;SDS011;64008;55.612;37.698;2023-09-30T01:35:44;21.42;;;8.88;;
75427;SDS011;64008;55.612;37.698;2023-09-30T01:38:10;18.05;;;8.32;;
75427;SDS011;64008;55.612;37.698;2023-09-30T01:40:35;14.45;;;7.63;;
75427;SDS011;64008;55.612;37.698;2023-09-30T01:43:02;18.35;;;7.55;;
75427;SDS011;64008;55.612;37.698;2023-09-30T01:45:28;15.48;;;7.97;;
75427;SDS011;64008;55.612;37.698;2023-09-30T01:47:54;15.63;;;6.78;;
75427;SDS011;64008;55.612;37.698;2023-09-30T01:50:19;14.05;;;6.70;;
75427;SDS011;64008;55.612;37.698;2023-09-30T01:52:45;14.88;;;7.22;;
75427;SDS011;64008;55.612;37.698;2023-09-30T01:55:10;15.05;;;7.82;;
75427;SDS011;64008;55.612;37.698;2023-09-30T01:57:36;14.43;;;7.53;;
75427;SDS011;64008;55.612;37.698;2023-09-30T02:00:02;15.95;;;7.13;;
75427;SDS011;64008;55.612;37.698;2023-09-30T02:02:28;15.15;;;6.65;;
75427;SDS011;64008;55.612;37.698;2023-09-30T02:04:53;14.18;;;7.03;;
75427;SDS011;64008;55.612;37.698;2023-09-30T02:07:19;13.23;;;6.68;;
75427;SDS011;64008;55.612;37.698;2023-09-30T02:09:44;13.52;;;7.60;;
75427;SDS011;64008;55.612;37.698;2023-09-30T02:12:10;13.50;;;6.95;;
75427;SDS011;64008;55.612;37.698;2023-09-30T02:14:35;15.65;;;7.05;;
75427;SDS011;64008;55.612;37.698;2023-09-30T02:17:03;12.73;;;6.63;;
75427;SDS011;64008;55.612;37.698;2023-09-30T02:19:29;15.23;;;6.78;;
75427;SDS011;64008;55.612;37.698;2023-09-30T02:21:56;16.20;;;7.18;;
75427;SDS011;64008;55.612;37.698;2023-09-30T02:24:22;17.73;;;7.20;;
75427;SDS011;64008;55.612;37.698;2023-09-30T02:26:48;13.30;;;7.00;;
75427;SDS011;64008;55.612;37.698;2023-09-30T02:29:13;14.02;;;7.45;;
75427;SDS011;64008;55.612;37.698;2023-09-30T02:31:39;16.58;;;7.13;;
75427;SDS011;64008;55.612;37.698;2023-09-30T02:34:06;16.58;;;7.18;;
75427;SDS011;64008;55.612;37.698;2023-09-30T02:36:32;14.55;;;6.80;;
75427;SDS011;64008;55.612;37.698;2023-09-30T02:38:58;16.40;;;7.28;;
75427;SDS011;64008;55.612;37.698;2023-09-30T02:41:24;16.08;;;6.60;;
75427;SDS011;64008;55.612;37.698;2023-09-30T02:43:50;18.48;;;7.43;;
75427;SDS011;64008;55.612;37.698;2023-09-30T02:46:15;11.90;;;7.07;;
75427;SDS011;64008;55.612;37.698;2023-09-30T02:48:41;14.48;;;7.85;;
75427;SDS011;64008;55.612;37.698;2023-09-30T02:51:10;14.63;;;7.88;;
75427;SDS011;64008;55.612;37.698;2023-09-30T02:53:36;15.40;;;7.18;;
75427;SDS011;64008;55.612;37.698;2023-09-30T02:56:02;13.32;;;7.32;;
75427;SDS011;64008;55.612;37.698;2023-09-30T02:58:29;14.10;;;7.57;;
75427;SDS011;64008;55.612;37.698;2023-09-30T03:00:55;16.85;;;7.80;;
75427;SDS011;64008;55.612;37.698;2023-09-30T03:03:21;14.38;;;7.35;;
75427;SDS011;64008;55.612;37.698;2023-09-30T03:05:46;13.80;;;7.35;;
75427;SDS011;64008;55.612;37.698;2023-09-30T03:08:15;16.08;;;7.75;;
75427;SDS011;64008;55.612;37.698;2023-09-30T03:10:41;13.90;;;7.57;;
75427;SDS011;64008;55.612;37.698;2023-09-30T03:13:07;17.63;;;7.85;;
75427;SDS011;64008;55.612;37.698;2023-09-30T03:15:34;18.50;;;7.55;;
75427;SDS011;64008;55.612;37.698;2023-09-30T03:20:26;16.13;;;7.60;;
75427;SDS011;64008;55.612;37.698;2023-09-30T03:22:52;11.73;;;7.15;;
75427;SDS011;64008;55.612;37.698;2023-09-30T03:25:18;14.45;;;7.68;;
75427;SDS011;64008;55.612;37.698;2023-09-30T03:27:45;33.85;;;17.75;;
75427;SDS011;64008;55.612;37.698;2023-09-30T03:30:12;17.83;;;8.43;;
75427;SDS011;64008;55.612;37.698;2023-09-30T03:32:40;18.50;;;7.93;;
75427;SDS011;64008;55.612;37.698;2023-09-30T03:35:07;14.65;;;7.32;;
75427;SDS011;64008;55.612;37.698;2023-09-30T03:37:38;16.20;;;7.45;;
75427;SDS011;64008;55.612;37.698;2023-09-30T03:40:04;18.27;;;8.15;;
75427;SDS011;64008;55.612;37.698;2023-09-30T03:42:39;12.80;;;7.60;;
75427;SDS011;64008;55.612;37.698;2023-09-30T03:45:07;14.68;;;8.07;;
75427;SDS011;64008;55.612;37.698;2023-09-30T03:47:34;15.85;;;7.60;;
75427;SDS011;64008;55.612;37.698;2023-09-30T03:50:03;15.57;;;7.68;;
75427;SDS011;64008;55.612;37.698;2023-09-30T03:52:30;20.08;;;7.28;;
75427;SDS011;64008;55.612;37.698;2023-09-30T03:55:02;15.27;;;7.70;;
75427;SDS011;64008;55.612;37.698;2023-09-30T03:57:31;13.90;;;7.30;;
75427;SDS011;64008;55.612;37.698;2023-09-30T03:59:57;15.50;;;8.05;;
75427;SDS011;64008;55.612;37.698;2023-09-30T04:02:22;13.65;;;7.25;;
75427;SDS011;64008;55.612;37.698;2023-09-30T04:04:48;17.63;;;8.63;;
75427;SDS011;64008;55.612;37.698;2023-09-30T04:07:16;17.58;;;7.63;;
75427;SDS011;64008;55.612;37.698;2023-09-30T04:09:42;17.65;;;8.07;;
75427;SDS011;64008;55.612;37.698;2023-09-30T04:12:07;14.48;;;7.35;;
75427;SDS011;64008;55.612;37.698;2023-09-30T04:14:33;13.50;;;7.55;;
75427;SDS011;64008;55.612;37.698;2023-09-30T04:16:58;14.52;;;8.23;;
75427;SDS011;64008;55.612;37.698;2023-09-30T04:19:24;18.10;;;8.38;;
75427;SDS011;64008;55.612;37.698;2023-09-30T04:21:49;13.15;;;7.53;;
75427;SDS011;64008;55.612;37.698;2023-09-30T04:24:15;15.55;;;8.88;;
75427;SDS011;64008;55.612;37.698;2023-09-30T04:26:41;19.08;;;8.38;;
75427;SDS011;64008;55.612;37.698;2023-09-30T04:29:06;14.40;;;8.18;;
75427;SDS011;64008;55.612;37.698;2023-09-30T04:31:36;16.45;;;8.38;;
75427;SDS011;64008;55.612;37.698;2023-09-30T04:34:04;14.18;;;8.10;;
75427;SDS011;64008;55.612;37.698;2023-09-30T04:36:30;14.02;;;8.00;;
75427;SDS011;64008;55.612;37.698;2023-09-30T04:38:56;16.23;;;7.95;;
75427;SDS011;64008;55.612;37.698;2023-09-30T04:41:26;13.25;;;7.93;;
75427;SDS011;64008;55.612;37.698;2023-09-30T04:43:51;14.15;;;8.02;;
75427;SDS011;64008;55.612;37.698;2023-09-30T04:46:18;15.73;;;7.80;;
75427;SDS011;64008;55.612;37.698;2023-09-30T04:48:45;13.95;;;8.13;;
75427;SDS011;64008;55.612;37.698;2023-09-30T04:51:13;14.32;;;7.90;;
75427;SDS011;64008;55.612;37.698;2023-09-30T04:53:41;15.88;;;8.02;;
75427;SDS011;64008;55.612;37.698;2023-09-30T04:56:07;17.05;;;9.25;;
75427;SDS011;64008;55.612;37.698;2023-09-30T04:58:32;25.23;;;13.80;;
75427;SDS011;64008;55.612;37.698;2023-09-30T05:00:58;19.60;;;9.13;;
75427;SDS011;64008;55.612;37.698;2023-09-30T05:03:23;21.60;;;10.10;;
75427;SDS011;64008;55.612;37.698;2023-09-30T05:05:50;26.38;;;11.50;;
75427;SDS011;64008;55.612;37.698;2023-09-30T05:08:23;28.92;;;13.02;;
75427;SDS011;64008;55.612;37.698;2023-09-30T05:10:49;28.45;;;11.23;;
75427;SDS011;64008;55.612;37.698;2023-09-30T05:13:15;28.98;;;12.75;;
75427;SDS011;64008;55.612;37.698;2023-09-30T05:15:40;22.17;;;10.52;;
75427;SDS011;64008;55.612;37.698;2023-09-30T05:18:07;29.27;;;15.73;;
75427;SDS011;64008;55.612;37.698;2023-09-30T05:20:33;38.58;;;16.08;;
75427;SDS011;64008;55.612;37.698;2023-09-30T05:23:01;28.55;;;11.93;;
75427;SDS011;64008;55.612;37.698;2023-09-30T05:25:27;21.40;;;10.52;;
75427;SDS011;64008;55.612;37.698;2023-09-30T05:27:53;24.00;;;11.13;;
75427;SDS011;64008;55.612;37.698;2023-09-30T05:30:19;18.58;;;10.25;;
75427;SDS011;64008;55.612;37.698;2023-09-30T05:32:45;21.80;;;9.05;;
75427;SDS011;64008;55.612;37.698;2023-09-30T05:35:11;20.95;;;10.35;;
75427;SDS011;64008;55.612;37.698;2023-09-30T05:37:41;20.60;;;9.23;;
75427;SDS011;64008;55.612;37.698;2023-09-30T05:40:08;16.98;;;7.72;;
75427;SDS011;64008;55.612;37.698;2023-09-30T05:42:45;17.88;;;8.45;;
75427;SDS011;64008;55.612;37.698;2023-09-30T05:45:10;23.23;;;10.30;;
75427;SDS011;64008;55.612;37.698;2023-09-30T05:47:38;16.80;;;8.82;;
75427;SDS011;64008;55.612;37.698;2023-09-30T05:50:04;17.95;;;9.32;;
75427;SDS011;64008;55.612;37.698;2023-09-30T05:52:32;15.80;;;8.63;;
75427;SDS011;64008;55.612;37.698;2023-09-30T05:54:58;18.00;;;9.27;;
75427;SDS011;64008;55.612;37.698;2023-09-30T05:57:26;15.65;;;8.68;;
75427;SDS011;64008;55.612;37.698;2023-09-30T05:59:52;18.48;;;8.95;;
75427;SDS011;64008;55.612;37.698;2023-09-30T06:02:17;20.60;;;9.23;;
75427;SDS011;64008;55.612;37.698;2023-09-30T06:04:43;21.33;;;9.48;;
75427;SDS011;64008;55.612;37.698;2023-09-30T06:07:11;19.42;;;9.48;;
75427;SDS011;64008;55.612;37.698;2023-09-30T06:09:37;17.38;;;9.10;;
75427;SDS011;64008;55.612;37.698;2023-09-30T06:12:02;17.58;;;9.00;;
75427;SDS011;64008;55.612;37.698;2023-09-30T06:14:31;19.65;;;9.27;;
75427;SDS011;64008;55.612;37.698;2023-09-30T06:16:57;19.05;;;8.45;;
75427;SDS011;64008;55.612;37.698;2023-09-30T06:19:22;15.82;;;9.23;;
75427;SDS011;64008;55.612;37.698;2023-09-30T06:21:51;17.67;;;8.55;;
75427;SDS011;64008;55.612;37.698;2023-09-30T06:24:17;16.83;;;8.40;;
75427;SDS011;64008;55.612;37.698;2023-09-30T06:26:45;17.90;;;8.60;;
75427;SDS011;64008;55.612;37.698;2023-09-30T06:29:10;16.17;;;7.95;;
75427;SDS011;64008;55.612;37.698;2023-09-30T06:31:36;16.63;;;8.27;;
75427;SDS011;64008;55.612;37.698;2023-09-30T06:34:02;13.48;;;7.90;;
75427;SDS011;64008;55.612;37.698;2023-09-30T06:36:29;17.45;;;8.25;;
75427;SDS011;64008;55.612;37.698;2023-09-30T06:38:55;19.75;;;8.05;;
75427;SDS011;64008;55.612;37.698;2023-09-30T06:41:20;22.67;;;9.80;;
75427;SDS011;64008;55.612;37.698;2023-09-30T06:43:46;17.52;;;8.43;;
75427;SDS011;64008;55.612;37.698;2023-09-30T06:46:11;17.58;;;7.97;;
75427;SDS011;64008;55.612;37.698;2023-09-30T06:48:38;14.45;;;7.35;;
75427;SDS011;64008;55.612;37.698;2023-09-30T06:51:05;13.65;;;7.78;;
75427;SDS011;64008;55.612;37.698;2023-09-30T06:53:31;15.00;;;7.80;;
75427;SDS011;64008;55.612;37.698;2023-09-30T06:55:56;15.50;;;7.60;;
75427;SDS011;64008;55.612;37.698;2023-09-30T06:58:22;14.13;;;8.02;;
75427;SDS011;64008;55.612;37.698;2023-09-30T07:00:51;18.25;;;8.82;;
75427;SDS011;64008;55.612;37.698;2023-09-30T07:03:19;15.70;;;7.55;;
75427;SDS011;64008;55.612;37.698;2023-09-30T07:05:45;15.25;;;7.53;;
75427;SDS011;64008;55.612;37.698;2023-09-30T07:08:14;15.18;;;8.23;;
75427;SDS011;64008;55.612;37.698;2023-09-30T07:10:41;15.98;;;7.40;;
75427;SDS011;64008;55.612;37.698;2023-09-30T07:13:06;13.05;;;7.55;;
75427;SDS011;64008;55.612;37.698;2023-09-30T07:15:32;14.93;;;7.55;;
75427;SDS011;64008;55.612;37.698;2023-09-30T07:17:58;13.57;;;6.97;;
75427;SDS011;64008;55.612;37.698;2023-09-30T07:20:23;17.20;;;7.78;;
75427;SDS011;64008;55.612;37.698;2023-09-30T07:22:50;15.43;;;7.45;;
75427;SDS011;64008;55.612;37.698;2023-09-30T07:25:16;12.93;;;7.15;;
75427;SDS011;64008;55.612;37.698;2023-09-30T07:27:45;12.10;;;6.97;;
75427;SDS011;64008;55.612;37.698;2023-09-30T07:30:14;12.73;;;7.13;;
75427;SDS011;64008;55.612;37.698;2023-09-30T07:32:42;12.20;;;6.68;;
75427;SDS011;64008;55.612;37.698;2023-09-30T07:35:09;14.60;;;6.63;;
75427;SDS011;64008;55.612;37.698;2023-09-30T07:37:35;14.15;;;6.57;;
75427;SDS011;64008;55.612;37.698;2023-09-30T07:40:01;11.88;;;7.28;;
75427;SDS011;64008;55.612;37.698;2023-09-30T07:42:26;12.90;;;7.05;;
75427;SDS011;64008;55.612;37.698;2023-09-30T07:44:52;13.00;;;6.50;;
75427;SDS011;64008;55.612;37.698;2023-09-30T07:47:19;14.43;;;7.10;;
75427;SDS011;64008;55.612;37.698;2023-09-30T07:49:44;14.60;;;7.70;;
75427;SDS011;64008;55.612;37.698;2023-09-30T07:52:10;31.35;;;7.15;;
75427;SDS011;64008;55.612;37.698;2023-09-30T07:54:36;16.05;;;6.85;;
75427;SDS011;64008;55.612;37.698;2023-09-30T07:57:01;17.13;;;7.22;;
75427;SDS011;64008;55.612;37.698;2023-09-30T07:59:27;12.48;;;6.30;;
75427;SDS011;64008;55.612;37.698;2023-09-30T08:01:53;19.30;;;6.72;;
75427;SDS011;64008;55.612;37.698;2023-09-30T08:04:19;12.45;;;6.80;;
75427;SDS011;64008;55.612;37.698;2023-09-30T08:06:44;13.52;;;5.97;;
75427;SDS011;64008;55.612;37.698;2023-09-30T08:09:12;13.70;;;6.32;;
75427;SDS011;64008;55.612;37.698;2023-09-30T08:11:38;13.30;;;6.50;;
75427;SDS011;64008;55.612;37.698;2023-09-30T08:14:04;14.88;;;6.57;;
75427;SDS011;64008;55.612;37.698;2023-09-30T08:16:35;14.38;;;6.20;;
75427;SDS011;64008;55.612;37.698;2023-09-30T08:19:02;13.52;;;6.32;;
75427;SDS011;64008;55.612;37.698;2023-09-30T08:21:28;12.40;;;6.10;;
75427;SDS011;64008;55.612;37.698;2023-09-30T08:23:54;12.15;;;6.22;;
75427;SDS011;64008;55.612;37.698;2023-09-30T08:26:20;10.45;;;5.80;;
75427;SDS011;64008;55.612;37.698;2023-09-30T08:28:45;12.65;;;5.57;;
75427;SDS011;64008;55.612;37.698;2023-09-30T08:31:11;10.50;;;5.43;;
75427;SDS011;64008;55.612;37.698;2023-09-30T08:33:36;11.82;;;6.00;;
75427;SDS011;64008;55.612;37.698;2023-09-30T08:36:05;13.63;;;5.88;;
75427;SDS011;64008;55.612;37.698;2023-09-30T08:38:38;13.00;;;6.38;;
75427;SDS011;64008;55.612;37.698;2023-09-30T08:41:04;10.02;;;5.70;;
75427;SDS011;64008;55.612;37.698;2023-09-30T08:43:30;13.30;;;5.90;;
75427;SDS011;64008;55.612;37.698;2023-09-30T08:46:01;10.50;;;5.50;;
75427;SDS011;64008;55.612;37.698;2023-09-30T08:48:29;19.17;;;5.90;;
75427;SDS011;64008;55.612;37.698;2023-09-30T08:50:58;11.73;;;5.75;;
75427;SDS011;64008;55.612;37.698;2023-09-30T08:53:25;11.40;;;5.68;;
75427;SDS011;64008;55.612;37.698;2023-09-30T08:55:54;10.80;;;5.60;;
75427;SDS011;64008;55.612;37.698;2023-09-30T08:58:24;14.60;;;6.10;;
75427;SDS011;64008;55.612;37.698;2023-09-30T09:00:51;10.10;;;5.40;;
75427;SDS011;64008;55.612;37.698;2023-09-30T09:03:18;10.52;;;5.45;;
75427;SDS011;64008;55.612;37.698;2023-09-30T09:05:45;13.65;;;5.55;;
75427;SDS011;64008;55.612;37.698;2023-09-30T09:08:11;11.70;;;5.43;;
75427;SDS011;64008;55.612;37.698;2023-09-30T09:10:46;11.43;;;5.22;;
75427;SDS011;64008;55.612;37.698;2023-09-30T09:13:21;10.25;;;4.97;;
75427;SDS011;64008;55.612;37.698;2023-09-30T09:15:46;11.23;;;5.38;;
75427;SDS011;64008;55.612;37.698;2023-09-30T09:18:12;11.65;;;5.70;;
75427;SDS011;64008;55.612;37.698;2023-09-30T09:21:07;12.05;;;5.78;;
75427;SDS011;64008;55.612;37.698;2023-09-30T09:23:51;14.40;;;5.10;;
75427;SDS011;64008;55.612;37.698;2023-09-30T09:29:05;11.40;;;5.10;;
75427;SDS011;64008;55.612;37.698;2023-09-30T09:31:31;14.07;;;5.35;;
75427;SDS011;64008;55.612;37.698;2023-09-30T09:33:59;10.50;;;5.25;;
75427;SDS011;64008;55.612;37.698;2023-09-30T09:36:39;10.00;;;5.50;;
75427;SDS011;64008;55.612;37.698;2023-09-30T09:39:06;10.45;;;4.75;;
75427;SDS011;64008;55.612;37.698;2023-09-30T09:41:32;8.32;;;5.22;;
75427;SDS011;64008;55.612;37.698;2023-09-30T09:43:58;12.38;;;5.47;;
75427;SDS011;64008;55.612;37.698;2023-09-30T09:46:24;9.98;;;4.70;;
75427;SDS011;64008;55.612;37.698;2023-09-30T09:48:52;11.77;;;4.95;;
75427;SDS011;64008;55.612;37.698;2023-09-30T09:51:20;11.85;;;5.60;;
75427;SDS011;64008;55.612;37.698;2023-09-30T09:53:46;10.88;;;5.22;;
75427;SDS011;64008;55.612;37.698;2023-09-30T09:56:15;11.13;;;5.82;;
75427;SDS011;64008;55.612;37.698;2023-09-30T09:58:42;10.65;;;4.97;;
75427;SDS011;64008;55.612;37.698;2023-09-30T10:01:09;11.35;;;5.47;;
75427;SDS011;64008;55.612;37.698;2023-09-30T10:03:36;8.88;;;4.88;;
75427;SDS011;64008;55.612;37.698;2023-09-30T10:06:03;9.80;;;4.97;;
75427;SDS011;64008;55.612;37.698;2023-09-30T10:08:40;10.20;;;5.05;;
75427;SDS011;64008;55.612;37.698;2023-09-30T10:11:10;10.15;;;5.30;;
75427;SDS011;64008;55.612;37.698;2023-09-30T10:13:52;12.98;;;5.53;;
75427;SDS011;64008;55.612;37.698;2023-09-30T10:24:50;13.30;;;8.70;;
75427;SDS011;64008;55.612;37.698;2023-09-30T10:29:58;9.95;;;5.47;;
75427;SDS011;64008;55.612;37.698;2023-09-30T10:35:15;11.85;;;5.47;;
75427;SDS011;64008;55.612;37.698;2023-09-30T10:40:50;10.23;;;5.47;;
75427;SDS011;64008;55.612;37.698;2023-09-30T10:46:29;11.38;;;5.28;;
75427;SDS011;64008;55.612;37.698;2023-09-30T10:48:52;12.48;;;5.35;;
75427;SDS011;64008;55.612;37.698;2023-09-30T10:51:19;11.27;;;5.25;;
75427;SDS011;64008;55.612;37.698;2023-09-30T10:53:49;12.00;;;5.47;;
75427;SDS011;64008;55.612;37.698;2023-09-30T10:56:21;11.93;;;5.43;;
75427;SDS011;64008;55.612;37.698;2023-09-30T10:58:49;11.20;;;5.50;;
75427;SDS011;64008;55.612;37.698;2023-09-30T11:01:25;13.52;;;5.47;;
75427;SDS011;64008;55.612;37.698;2023-09-30T11:03:50;14.32;;;5.70;;
75427;SDS011;64008;55.612;37.698;2023-09-30T11:06:23;12.00;;;5.95;;
75427;SDS011;64008;55.612;37.698;2023-09-30T11:08:53;11.38;;;5.20;;
75427;SDS011;64008;55.612;37.698;2023-09-30T11:11:31;10.57;;;5.30;;
75427;SDS011;64008;55.612;37.698;2023-09-30T11:16:54;11.98;;;5.38;;
75427;SDS011;64008;55.612;37.698;2023-09-30T11:19:21;11.45;;;5.80;;
75427;SDS011;64008;55.612;37.698;2023-09-30T11:21:57;11.75;;;5.80;;
75427;SDS011;64008;55.612;37.698;2023-09-30T11:24:23;11.77;;;5.90;;
75427;SDS011;64008;55.612;37.698;2023-09-30T11:26:52;11.77;;;5.60;;
75427;SDS011;64008;55.612;37.698;2023-09-30T11:29:18;9.75;;;6.03;;
75427;SDS011;64008;55.612;37.698;2023-09-30T11:31:46;11.50;;;5.40;;
75427;SDS011;64008;55.612;37.698;2023-09-30T11:34:13;11.52;;;5.65;;
75427;SDS011;64008;55.612;37.698;2023-09-30T11:36:46;13.18;;;5.55;;
75427;SDS011;64008;55.612;37.698;2023-09-30T11:41:52;11.65;;;5.50;;
75427;SDS011;64008;55.612;37.698;2023-09-30T11:44:20;12.27;;;5.93;;
75427;SDS011;64008;55.612;37.698;2023-09-30T11:46:53;10.77;;;5.75;;
75427;SDS011;64008;55.612;37.698;2023-09-30T11:51:55;13.70;;;5.65;;
75427;SDS011;64008;55.612;37.698;2023-09-30T11:54:31;10.57;;;5.63;;
75427;SDS011;64008;55.612;37.698;2023-09-30T11:56:58;13.23;;;5.70;;
75427;SDS011;64008;55.612;37.698;2023-09-30T11:59:28;12.48;;;5.68;;
75427;SDS011;64008;55.612;37.698;2023-09-30T12:01:54;11.18;;;5.68;;
75427;SDS011;64008;55.612;37.698;2023-09-30T12:04:20;10.82;;;5.95;;
75427;SDS011;64008;55.612;37.698;2023-09-30T12:06:46;8.80;;;5.22;;
75427;SDS011;64008;55.612;37.698;2023-09-30T12:09:13;12.88;;;5.80;;
75427;SDS011;64008;55.612;37.698;2023-09-30T12:11:41;10.93;;;5.45;;
75427;SDS011;64008;55.612;37.698;2023-09-30T12:14:10;10.82;;;6.55;;
75427;SDS011;64008;55.612;37.698;2023-09-30T12:16:37;11.73;;;5.68;;
75427;SDS011;64008;55.612;37.698;2023-09-30T12:19:03;12.27;;;5.38;;
75427;SDS011;64008;55.612;37.698;2023-09-30T12:21:30;11.05;;;5.95;;
75427;SDS011;64008;55.612;37.698;2023-09-30T12:23:55;11.07;;;5.50;;
75427;SDS011;64008;55.612;37.698;2023-09-30T12:26:21;9.85;;;5.43;;
75427;SDS011;64008;55.612;37.698;2023-09-30T12:28:46;13.77;;;5.65;;
75427;SDS011;64008;55.612;37.698;2023-09-30T12:31:13;10.75;;;6.28;;
75427;SDS011;64008;55.612;37.698;2023-09-30T12:33:39;13.77;;;5.57;;
75427;SDS011;64008;55.612;37.698;2023-09-30T12:36:05;9.98;;;5.47;;
75427;SDS011;64008;55.612;37.698;2023-09-30T12:38:31;10.35;;;5.75;;
75427;SDS011;64008;55.612;37.698;2023-09-30T12:40:56;11.77;;;5.50;;
75427;SDS011;64008;55.612;37.698;2023-09-30T12:43:22;12.13;;;5.63;;
75427;SDS011;64008;55.612;37.698;2023-09-30T12:45:48;10.70;;;5.40;;
75427;SDS011;64008;55.612;37.698;2023-09-30T12:48:16;11.27;;;5.47;;
75427;SDS011;64008;55.612;37.698;2023-09-30T12:50:43;16.27;;;5.72;;
75427;SDS011;64008;55.612;37.698;2023-09-30T12:53:09;10.52;;;5.05;;
75427;SDS011;64008;55.612;37.698;2023-09-30T12:55:35;11.02;;;5.47;;
75427;SDS011;64008;55.612;37.698;2023-09-30T12:58:01;12.80;;;5.85;;
75427;SDS011;64008;55.612;37.698;2023-09-30T13:00:27;9.52;;;5.82;;
75427;SDS011;64008;55.612;37.698;2023-09-30T13:02:55;8.88;;;4.93;;
75427;SDS011;64008;55.612;37.698;2023-09-30T13:05:21;11.50;;;5.78;;
75427;SDS011;64008;55.612;37.698;2023-09-30T13:07:47;11.00;;;5.80;;
75427;SDS011;64008;55.612;37.698;2023-09-30T13:10:12;10.80;;;5.18;;
75427;SDS011;64008;55.612;37.698;2023-09-30T13:12:38;10.25;;;5.32;;
75427;SDS011;64008;55.612;37.698;2023-09-30T13:15:04;11.13;;;5.90;;
75427;SDS011;64008;55.612;37.698;2023-09-30T13:17:30;8.85;;;5.10;;
75427;SDS011;64008;55.612;37.698;2023-09-30T13:19:56;11.50;;;6.20;;
75427;SDS011;64008;55.612;37.698;2023-09-30T13:22:22;12.15;;;5.63;;
75427;SDS011;64008;55.612;37.698;2023-09-30T13:24:47;13.00;;;5.45;;
75427;SDS011;64008;55.612;37.698;2023-09-30T13:27:13;8.90;;;5.40;;
75427;SDS011;64008;55.612;37.698;2023-09-30T13:29:41;12.70;;;5.22;;
75427;SDS011;64008;55.612;37.698;2023-09-30T13:32:09;12.25;;;5.85;;
75427;SDS011;64008;55.612;37.698;2023-09-30T13:34:35;9.98;;;5.57;;
75427;SDS011;64008;55.612;37.698;2023-09-30T13:37:00;11.68;;;5.60;;
75427;SDS011;64008;55.612;37.698;2023-09-30T13:39:26;10.45;;;5.38;;
75427;SDS011;64008;55.612;37.698;2023-09-30T13:41:52;9.60;;;5.28;;
75427;SDS011;64008;55.612;37.698;2023-09-30T13:44:18;11.63;;;5.60;;
75427;SDS011;64008;55.612;37.698;2023-09-30T13:46:44;11.70;;;5.40;;
75427;SDS011;64008;55.612;37.698;2023-09-30T13:51:35;13.05;;;5.50;;
75427;SDS011;64008;55.612;37.698;2023-09-30T13:54:04;12.05;;;5.35;;
75427;SDS011;64008;55.612;37.698;2023-09-30T13:56:29;11.15;;;5.57;;
75427;SDS011;64008;55.612;37.698;2023-09-30T13:58:55;9.15;;;4.90;;
75427;SDS011;64008;55.612;37.698;2023-09-30T14:01:22;11.20;;;5.55;;
75427;SDS011;64008;55.612;37.698;2023-09-30T14:03:48;9.38;;;5.07;;
75427;SDS011;64008;55.612;37.698;2023-09-30T14:06:14;12.52;;;5.47;;
75427;SDS011;64008;55.612;37.698;2023-09-30T14:08:40;10.13;;;5.47;;
75427;SDS011;64008;55.612;37.698;2023-09-30T14:11:09;11.02;;;5.57;;
75427;SDS011;64008;55.612;37.698;2023-09-30T14:13:37;14.13;;;6.07;;
75427;SDS011;64008;55.612;37.698;2023-09-30T14:16:03;12.05;;;6.53;;
75427;SDS011;64008;55.612;37.698;2023-09-30T14:18:29;11.30;;;5.45;;
75427;SDS011;64008;55.612;37.698;2023-09-30T14:20:55;12.23;;;5.65;;
75427;SDS011;64008;55.612;37.698;2023-09-30T14:23:20;13.77;;;6.05;;
75427;SDS011;64008;55.612;37.698;2023-09-30T14:25:46;11.73;;;5.88;;
75427;SDS011;64008;55.612;37.698;2023-09-30T14:28:12;12.27;;;5.50;;
75427;SDS011;64008;55.612;37.698;2023-09-30T14:30:38;10.10;;;5.43;;
75427;SDS011;64008;55.612;37.698;2023-09-30T14:33:04;9.48;;;5.78;;
75427;SDS011;64008;55.612;37.698;2023-09-30T14:35:29;13.55;;;6.28;;
75427;SDS011;64008;55.612;37.698;2023-09-30T14:37:57;13.07;;;6.50;;
75427;SDS011;64008;55.612;37.698;2023-09-30T14:40:23;13.02;;;6.03;;
75427;SDS011;64008;55.612;37.698;2023-09-30T14:42:48;9.82;;;5.93;;
75427;SDS011;64008;55.612;37.698;2023-09-30T14:45:14;11.90;;;6.20;;
75427;SDS011;64008;55.612;37.698;2023-09-30T14:47:39;14.93;;;6.43;;
75427;SDS011;64008;55.612;37.698;2023-09-30T14:50:08;11.13;;;6.68;;
75427;SDS011;64008;55.612;37.698;2023-09-30T14:52:34;10.45;;;5.97;;
75427;SDS011;64008;55.612;37.698;2023-09-30T14:54:59;9.77;;;5.85;;
75427;SDS011;64008;55.612;37.698;2023-09-30T14:57:25;11.95;;;5.90;;